Acme, Washington
Current Conditions -  °F | °C
As of 9:53 AM on Thursday 23 Oct 2014 (Local Time) from KBLI Reporting Station
Light Rain Light Rain  
Wind Chill: 53°   Ceiling: 6000
Heat Index: 53°   Visibility: 6mi
Dew Point: 46°   Wind: 18mph
Humidity: 77%   Direction: 150°SSE
Pressure: 29.71"   Gusts: 25mph
Location:  48.72°N, 122.21°W
Report Text: KBLI 231653Z 15016G22KT 6SM -RA SCT025 BKN060 OVC070 12/08 A2971 RMK AO2 PK WND 15028/1618 SLP068 P0001 T01170078
Loading
Personal Weather Stations






























Interactive Weather Map
Tropical Storm Tracking
New forecast layout! Learn more

10-Day Weather Forecast

Advertisements
Track Severe Weather on mobile